Time;durP1;ratioP1;P1;durP2;ratioP2;P2;SDS_P1;SDS_P2;PMS_P1;PMS_P2;Temp;Humidity;BMP_temperature;BMP_pressure;BME280_temperature;BME280_humidity;BME280_pressure;Samples;Min_cycle;Max_cycle;Signal;HPM_P1;HPM_P2
2023/05/14 00:02:13;;;;;;;2.60;2.40;;;18.50;66.40;;;;;;5069395;28;20542;-66
2023/05/14 00:04:39;;;;;;;2.63;2.53;;;18.50;66.40;;;;;;5046766;28;20208;-65
2023/05/14 00:07:05;;;;;;;2.40;2.20;;;18.50;66.40;;;;;;5029492;28;20245;-65
2023/05/14 00:09:31;;;;;;;2.58;2.38;;;18.50;66.40;;;;;;5045054;28;20599;-66
2023/05/14 00:11:57;;;;;;;2.40;2.20;;;18.50;66.40;;;;;;5011831;28;20282;-65
2023/05/14 00:14:23;;;;;;;2.40;2.20;;;18.50;66.40;;;;;;5028086;28;20215;-66
2023/05/14 00:16:49;;;;;;;2.15;2.05;;;18.50;66.40;;;;;;5011997;28;20235;-65
2023/05/14 00:19:15;;;;;;;2.30;2.20;;;18.40;66.40;;;;;;5011795;28;20290;-66
2023/05/14 00:21:40;;;;;;;2.70;2.50;;;18.40;66.30;;;;;;5044683;28;20213;-65
2023/05/14 00:24:06;;;;;;;2.20;2.10;;;18.50;66.40;;;;;;5028175;28;20203;-65
2023/05/14 00:26:32;;;;;;;2.53;2.22;;;18.50;66.50;;;;;;5019685;28;20231;-65
2023/05/14 00:28:58;;;;;;;2.25;2.13;;;18.50;66.50;;;;;;5038873;28;20180;-66
2023/05/14 00:31:23;;;;;;;2.78;2.58;;;18.50;66.40;;;;;;5018893;28;20195;-66
2023/05/14 00:33:49;;;;;;;2.30;2.20;;;18.50;66.40;;;;;;5027923;28;20191;-66
2023/05/14 00:36:15;;;;;;;2.25;2.13;;;18.50;66.40;;;;;;5021007;28;20295;-65
2023/05/14 00:38:41;;;;;;;2.30;2.10;;;18.50;66.50;;;;;;5035795;28;20195;-65
2023/05/14 00:41:07;;;;;;;2.20;2.03;;;18.50;66.50;;;;;;5011264;28;20207;-66
2023/05/14 00:43:32;;;;;;;2.20;2.10;;;18.50;66.50;;;;;;5009355;28;20188;-65
2023/05/14 00:45:59;;;;;;;2.45;2.25;;;18.40;66.40;;;;;;5027757;28;20604;-66
2023/05/14 00:48:25;;;;;;;2.30;2.20;;;18.50;66.50;;;;;;5027577;28;20195;-65
2023/05/14 00:50:51;;;;;;;2.60;2.40;;;18.40;66.40;;;;;;5011265;28;20183;-66
2023/05/14 00:53:19;;;;;;;2.30;2.10;;;18.50;66.50;;;;;;5027505;28;20678;-65
2023/05/14 00:55:48;;;;;;;2.67;2.50;;;18.40;66.40;;;;;;5027094;28;20665;-64
2023/05/14 00:58:14;;;;;;;2.35;2.20;;;18.50;66.50;;;;;;5010955;28;20651;-66
2023/05/14 01:00:41;;;;;;;2.60;2.42;;;18.40;66.40;;;;;;5018962;28;20207;-65
2023/05/14 01:03:08;;;;;;;2.78;2.58;;;18.40;66.40;;;;;;5010974;28;20203;-65
2023/05/14 01:05:50;;;;;;;2.60;2.40;;;18.40;66.30;;;;;;5027038;28;20210;-66
2023/05/14 01:08:35;;;;;;;2.17;2.08;;;18.40;66.40;;;;;;5011185;28;20198;-66
2023/05/14 01:11:21;;;;;;;2.67;2.47;;;18.40;66.30;;;;;;5035610;28;20250;-65
2023/05/14 01:14:20;;;;;;;2.13;2.03;;;18.50;66.50;;;;;;5005984;28;20180;-65
2023/05/14 01:16:51;;;;;;;2.60;2.40;;;18.40;66.30;;;;;;4997719;28;20215;-65
2023/05/14 01:19:40;;;;;;;2.60;2.40;;;18.50;66.50;;;;;;5013937;28;20195;-65
2023/05/14 01:22:06;;;;;;;2.08;1.98;;;18.40;66.30;;;;;;5013810;28;20291;-66
2023/05/14 01:24:32;;;;;;;2.67;2.47;;;18.50;66.50;;;;;;5014067;28;20205;-66
2023/05/14 01:27:34;;;;;;;2.22;2.13;;;18.50;66.50;;;;;;4997587;28;20180;-65
2023/05/14 01:30:12;;;;;;;2.80;2.60;;;18.50;66.50;;;;;;5006683;28;20554;-66
2023/05/14 01:32:40;;;;;;;2.60;2.40;;;18.50;66.50;;;;;;5010292;28;20192;-65
2023/05/14 01:35:08;;;;;;;2.22;2.03;;;18.40;66.40;;;;;;5024470;28;20212;-66
2023/05/14 01:37:35;;;;;;;2.30;2.10;;;18.40;66.40;;;;;;4997033;28;20192;-65
2023/05/14 01:40:02;;;;;;;2.03;1.92;;;18.40;66.40;;;;;;4997070;28;20180;-65
2023/05/14 01:42:29;;;;;;;2.42;2.22;;;18.50;66.50;;;;;;4997063;28;20200;-66
2023/05/14 01:44:55;;;;;;;2.30;2.20;;;18.40;66.40;;;;;;4993689;28;20232;-65
2023/05/14 01:47:21;;;;;;;2.17;2.08;;;18.40;66.40;;;;;;5026201;28;20223;-65
2023/05/14 01:49:47;;;;;;;2.60;2.40;;;18.40;66.40;;;;;;5013735;28;20181;-65
2023/05/14 01:52:13;;;;;;;2.22;2.13;;;18.40;66.40;;;;;;5013185;28;20194;-65
2023/05/14 01:54:39;;;;;;;2.08;1.98;;;18.50;66.50;;;;;;4997054;28;20199;-65
2023/05/14 01:57:04;;;;;;;2.20;2.10;;;18.50;66.50;;;;;;4993487;28;20184;-66
2023/05/14 01:59:30;;;;;;;2.13;2.03;;;18.40;66.40;;;;;;4994874;28;20185;-66
2023/05/14 02:01:56;;;;;;;2.10;2.00;;;18.40;66.40;;;;;;5021644;28;20216;-65
2023/05/14 02:04:21;;;;;;;2.65;2.45;;;18.40;66.40;;;;;;5013161;28;20195;-66
2023/05/14 02:06:47;;;;;;;2.30;2.17;;;18.40;66.40;;;;;;5021488;28;20208;-66
2023/05/14 02:09:13;;;;;;;2.38;2.20;;;18.50;66.50;;;;;;5013040;28;20195;-66
2023/05/14 02:11:39;;;;;;;2.60;2.40;;;18.50;66.50;;;;;;4996682;28;20297;-65
2023/05/14 02:14:04;;;;;;;2.38;2.28;;;18.40;66.40;;;;;;4996836;28;20196;-66
2023/05/14 02:16:30;;;;;;;2.20;2.10;;;18.40;66.50;;;;;;4996192;28;20239;-64
2023/05/14 02:18:56;;;;;;;2.20;2.10;;;18.50;66.50;;;;;;4993176;28;20192;-66
2023/05/14 02:21:22;;;;;;;2.10;2.00;;;18.50;66.50;;;;;;5025657;28;20211;-66
2023/05/14 02:23:48;;;;;;;2.30;2.20;;;18.40;66.40;;;;;;4992343;28;20197;-64
2023/05/14 02:26:14;;;;;;;2.38;2.17;;;18.40;66.40;;;;;;5007682;28;20303;-65
2023/05/14 02:28:40;;;;;;;2.08;1.98;;;18.50;66.50;;;;;;5029198;28;20184;-66
2023/05/14 02:31:06;;;;;;;2.50;1.95;;;18.40;66.30;;;;;;5012460;28;20588;-66
2023/05/14 02:33:31;;;;;;;1.92;1.83;;;18.40;66.40;;;;;;4996053;28;20582;-66
2023/05/14 02:35:57;;;;;;;2.08;1.95;;;18.40;66.30;;;;;;5012810;28;20219;-66
2023/05/14 02:38:25;;;;;;;2.60;2.30;;;18.40;66.40;;;;;;4992773;28;20197;-65
2023/05/14 02:40:50;;;;;;;2.03;1.92;;;18.40;66.40;;;;;;5004547;28;20218;-65
2023/05/14 02:43:16;;;;;;;2.38;2.17;;;18.40;66.30;;;;;;4996012;28;20300;-65
2023/05/14 02:45:42;;;;;;;2.15;2.05;;;18.40;66.40;;;;;;5012458;28;20228;-65
2023/05/14 02:48:08;;;;;;;2.28;2.17;;;18.40;66.40;;;;;;4995823;28;20242;-65
2023/05/14 02:50:33;;;;;;;1.98;1.88;;;18.40;66.40;;;;;;4995691;28;20202;-65
2023/05/14 02:53:00;;;;;;;2.30;2.10;;;18.40;66.40;;;;;;4995847;28;20191;-66
2023/05/14 02:55:26;;;;;;;2.47;2.33;;;18.40;66.40;;;;;;4996564;28;20306;-65
2023/05/14 02:57:52;;;;;;;2.50;2.40;;;18.40;66.40;;;;;;4995938;28;20270;-66
2023/05/14 03:00:18;;;;;;;2.60;2.40;;;18.40;66.40;;;;;;5011927;28;20705;-65
2023/05/14 03:02:44;;;;;;;2.35;2.15;;;18.40;66.40;;;;;;5028384;28;20303;-65
2023/05/14 03:05:10;;;;;;;2.30;2.20;;;18.40;66.40;;;;;;5028331;28;20290;-66
2023/05/14 03:07:36;;;;;;;2.20;2.10;;;18.40;66.40;;;;;;5027973;28;20655;-66
2023/05/14 03:10:03;;;;;;;2.28;2.13;;;18.40;66.40;;;;;;5028273;28;20186;-66
2023/05/14 03:12:28;;;;;;;2.60;2.40;;;18.40;66.40;;;;;;5020053;28;20191;-65
2023/05/14 03:14:54;;;;;;;2.67;2.47;;;18.40;66.40;;;;;;5011754;28;20254;-65
2023/05/14 03:17:20;;;;;;;2.63;2.42;;;18.40;66.40;;;;;;5028011;28;20184;-66
2023/05/14 03:19:45;;;;;;;2.20;2.10;;;18.40;66.40;;;;;;5027988;28;20199;-66
2023/05/14 03:22:11;;;;;;;2.50;2.28;;;18.40;66.30;;;;;;4995523;28;20218;-65
2023/05/14 03:24:39;;;;;;;2.72;2.53;;;18.40;66.40;;;;;;5002092;28;20197;-65
2023/05/14 03:27:05;;;;;;;2.40;2.30;;;18.40;66.40;;;;;;4997041;28;20180;-65
2023/05/14 03:29:31;;;;;;;2.95;2.50;;;18.40;66.40;;;;;;5019578;28;20766;-65
2023/05/14 03:31:57;;;;;;;2.13;2.03;;;18.40;66.40;;;;;;5000555;28;20192;-65
2023/05/14 03:34:23;;;;;;;2.53;2.33;;;18.40;66.40;;;;;;4999335;28;20219;-65
2023/05/14 03:36:49;;;;;;;2.63;2.42;;;18.40;66.40;;;;;;5008239;28;20227;-65
2023/05/14 03:39:18;;;;;;;2.33;2.13;;;18.40;66.40;;;;;;5016230;28;20196;-65
2023/05/14 03:41:45;;;;;;;2.70;2.50;;;18.40;66.30;;;;;;5018222;28;20204;-65
2023/05/14 03:44:12;;;;;;;2.70;2.50;;;18.40;66.40;;;;;;5011315;28;20188;-65
2023/05/14 03:46:37;;;;;;;2.30;2.20;;;18.40;66.40;;;;;;4986562;28;20206;-65
2023/05/14 03:49:03;;;;;;;2.70;2.50;;;18.40;66.40;;;;;;4991709;28;20192;-66
2023/05/14 03:51:30;;;;;;;3.20;3.00;;;18.40;66.30;;;;;;5016165;28;20192;-64
2023/05/14 03:54:00;;;;;;;2.88;2.67;;;18.40;66.40;;;;;;5003156;28;20579;-66
2023/05/14 03:56:26;;;;;;;2.63;2.42;;;18.40;66.40;;;;;;5003130;28;20343;-66
2023/05/14 03:58:52;;;;;;;2.90;2.70;;;18.40;66.40;;;;;;4994882;28;20270;-66
2023/05/14 04:01:18;;;;;;;2.80;2.60;;;18.40;66.40;;;;;;5027744;28;20215;-65
2023/05/14 04:03:43;;;;;;;3.00;2.80;;;18.40;66.40;;;;;;5011116;28;20188;-65
2023/05/14 04:06:10;;;;;;;2.75;2.55;;;18.40;66.40;;;;;;5010860;28;20298;-66
2023/05/14 04:08:36;;;;;;;2.88;2.67;;;18.40;66.50;;;;;;5026498;28;20257;-66
2023/05/14 04:11:02;;;;;;;2.72;2.53;;;18.40;66.40;;;;;;5012461;28;20231;-66
2023/05/14 04:13:27;;;;;;;2.85;2.65;;;18.40;66.40;;;;;;5027801;28;20195;-65
2023/05/14 04:15:53;;;;;;;3.63;3.33;;;18.40;66.40;;;;;;5015808;28;20710;-66
2023/05/14 04:18:19;;;;;;;2.97;2.78;;;18.40;66.40;;;;;;5008582;28;20192;-66
2023/05/14 04:20:44;;;;;;;2.97;2.78;;;18.40;66.40;;;;;;5017290;28;20208;-65
2023/05/14 04:23:10;;;;;;;2.80;2.60;;;18.40;66.40;;;;;;5016032;28;20279;-65
2023/05/14 04:25:36;;;;;;;3.05;2.85;;;18.40;66.40;;;;;;5019133;28;20208;-65
2023/05/14 04:28:02;;;;;;;2.90;2.70;;;18.40;66.40;;;;;;4994751;28;20191;-66
2023/05/14 04:30:27;;;;;;;3.25;3.05;;;18.40;66.40;;;;;;4986681;28;20210;-65
2023/05/14 04:32:53;;;;;;;3.17;2.97;;;18.40;66.40;;;;;;4994240;28;20543;-66
2023/05/14 04:35:20;;;;;;;3.20;3.00;;;18.40;66.40;;;;;;5002822;28;20223;-66
2023/05/14 04:37:46;;;;;;;2.90;2.70;;;18.40;66.40;;;;;;4992133;28;20200;-66
2023/05/14 04:40:12;;;;;;;3.10;2.90;;;18.40;66.40;;;;;;4999415;28;20197;-65
2023/05/14 04:42:38;;;;;;;3.67;3.38;;;18.40;66.40;;;;;;5016502;28;20200;-65
2023/05/14 04:45:05;;;;;;;3.08;2.88;;;18.40;66.40;;;;;;4998304;28;20216;-65
2023/05/14 04:47:31;;;;;;;3.08;2.88;;;18.40;66.40;;;;;;5008401;28;20192;-65
2023/05/14 04:49:57;;;;;;;2.95;2.75;;;18.40;66.40;;;;;;5006500;28;20183;-65
2023/05/14 04:52:23;;;;;;;2.95;2.75;;;18.40;66.40;;;;;;4998373;28;20188;-66
2023/05/14 04:54:49;;;;;;;3.50;3.30;;;18.40;66.40;;;;;;5005997;28;20227;-65
2023/05/14 04:57:15;;;;;;;3.33;3.03;;;18.40;66.40;;;;;;5014172;28;20188;-65
2023/05/14 04:59:41;;;;;;;3.25;3.05;;;18.40;66.40;;;;;;5014186;28;20258;-66
2023/05/14 05:02:07;;;;;;;3.45;3.25;;;18.40;66.40;;;;;;5030914;28;20243;-65
2023/05/14 05:04:33;;;;;;;3.10;2.90;;;18.40;66.40;;;;;;5005756;28;20236;-66
2023/05/14 05:06:58;;;;;;;3.28;3.08;;;18.40;66.40;;;;;;5014118;28;20192;-65
2023/05/14 05:09:24;;;;;;;3.80;3.50;;;18.40;66.50;;;;;;5014076;28;20188;-65
2023/05/14 05:11:50;;;;;;;3.63;3.40;;;18.40;66.50;;;;;;4995260;28;20199;-65
2023/05/14 05:14:16;;;;;;;4.00;3.70;;;18.40;66.50;;;;;;4984074;28;20250;-65
2023/05/14 05:16:42;;;;;;;3.80;3.50;;;18.40;66.40;;;;;;4997598;28;20207;-65
2023/05/14 05:19:08;;;;;;;3.33;3.13;;;18.40;66.40;;;;;;5022229;28;20207;-66
2023/05/14 05:21:34;;;;;;;3.65;3.35;;;18.40;66.50;;;;;;4997692;28;20220;-65
2023/05/14 05:23:59;;;;;;;3.22;3.03;;;18.40;66.40;;;;;;5022250;28;20176;-64
2023/05/14 05:26:26;;;;;;;3.58;3.30;;;18.30;66.40;;;;;;5030306;28;20322;-65
2023/05/14 05:28:52;;;;;;;3.55;3.30;;;18.40;66.50;;;;;;5011508;28;20199;-65
2023/05/14 05:31:18;;;;;;;3.10;2.90;;;18.40;66.40;;;;;;5003471;28;20204;-65
2023/05/14 05:33:44;;;;;;;3.53;3.30;;;18.40;66.50;;;;;;5003189;28;20192;-65
2023/05/14 05:36:10;;;;;;;3.58;3.38;;;18.40;66.50;;;;;;5005404;28;20235;-65
2023/05/14 05:38:36;;;;;;;3.33;3.13;;;18.40;66.50;;;;;;5013523;28;20206;-65
2023/05/14 05:41:01;;;;;;;3.20;2.97;;;18.40;66.50;;;;;;5021931;28;20215;-65
2023/05/14 05:43:27;;;;;;;3.40;3.10;;;18.40;66.70;;;;;;4982421;28;20192;-66
2023/05/14 05:45:53;;;;;;;3.55;3.25;;;18.30;66.40;;;;;;5026258;28;20214;-64
2023/05/14 05:48:19;;;;;;;3.22;3.00;;;18.40;66.50;;;;;;5016014;28;20194;-66
2023/05/14 05:50:49;;;;;;;3.95;3.65;;;18.40;66.50;;;;;;5020389;28;20193;-65
2023/05/14 05:53:17;;;;;;;3.70;3.40;;;18.40;66.50;;;;;;5015363;28;20196;-65
2023/05/14 05:55:43;;;;;;;3.42;3.22;;;18.40;66.50;;;;;;5028562;28;20212;-65
2023/05/14 05:58:09;;;;;;;3.95;3.42;;;18.40;66.50;;;;;;5022551;28;20266;-65
2023/05/14 06:00:35;;;;;;;3.90;3.60;;;18.40;66.50;;;;;;5006467;28;20212;-66
2023/05/14 06:03:00;;;;;;;3.65;3.35;;;18.40;66.50;;;;;;5013626;28;20192;-66
2023/05/14 06:05:26;;;;;;;3.00;2.80;;;18.40;66.50;;;;;;5020971;28;20244;-65
2023/05/14 06:07:54;;;;;;;3.60;3.30;;;18.40;66.50;;;;;;5012892;28;20199;-65
2023/05/14 06:10:20;;;;;;;3.90;3.60;;;18.40;66.50;;;;;;5008241;28;20200;-66
2023/05/14 06:12:46;;;;;;;3.58;3.28;;;18.40;66.50;;;;;;5027206;28;20200;-65
2023/05/14 06:15:12;;;;;;;3.58;3.35;;;18.40;66.50;;;;;;5029204;28;20270;-65
2023/05/14 06:17:38;;;;;;;3.55;3.25;;;18.40;66.50;;;;;;5020944;28;20246;-64
2023/05/14 06:20:06;;;;;;;3.33;3.08;;;18.40;66.50;;;;;;5017661;28;20229;-65
2023/05/14 06:22:33;;;;;;;3.25;3.05;;;18.40;66.50;;;;;;4993116;28;20200;-66
2023/05/14 06:24:58;;;;;;;3.75;3.45;;;18.40;66.50;;;;;;5000612;28;20262;-66
2023/05/14 06:27:24;;;;;;;3.47;3.28;;;18.40;66.50;;;;;;5010281;28;20201;-66
2023/05/14 06:29:50;;;;;;;3.53;3.33;;;18.40;66.40;;;;;;5019064;28;20249;-65
2023/05/14 06:32:16;;;;;;;3.28;3.08;;;18.40;66.40;;;;;;5014057;28;20191;-65
2023/05/14 06:34:42;;;;;;;3.70;3.40;;;18.40;66.40;;;;;;4996622;28;20280;-65
2023/05/14 06:37:09;;;;;;;3.80;3.50;;;18.40;66.40;;;;;;5009271;28;20193;-66
2023/05/14 06:39:36;;;;;;;3.65;3.40;;;18.40;66.40;;;;;;5008594;28;20678;-65
2023/05/14 06:42:01;;;;;;;3.30;3.10;;;18.40;66.40;;;;;;4987600;28;20204;-66
2023/05/14 06:44:30;;;;;;;3.90;3.60;;;18.40;66.40;;;;;;5023799;28;20196;-66
2023/05/14 06:46:56;;;;;;;3.70;3.40;;;18.40;66.40;;;;;;5007960;28;20184;-66
2023/05/14 06:49:22;;;;;;;3.83;3.53;;;18.40;66.40;;;;;;5017338;28;20645;-66
2023/05/14 06:51:47;;;;;;;3.75;3.45;;;18.40;66.40;;;;;;5017943;28;20189;-66
2023/05/14 06:54:13;;;;;;;3.70;3.40;;;18.40;66.40;;;;;;5006464;28;20291;-66
2023/05/14 06:56:39;;;;;;;3.00;2.80;;;18.40;66.40;;;;;;5021462;28;20603;-66
2023/05/14 06:59:05;;;;;;;3.60;3.30;;;18.40;66.40;;;;;;5011990;28;20192;-65
2023/05/14 07:01:30;;;;;;;3.65;3.40;;;18.40;66.40;;;;;;5028462;28;20212;-66
2023/05/14 07:03:56;;;;;;;3.78;3.47;;;18.40;66.30;;;;;;5009595;28;20207;-66
2023/05/14 07:06:22;;;;;;;3.75;3.50;;;18.40;66.40;;;;;;5022285;28;20208;-65
2023/05/14 07:08:48;;;;;;;3.55;3.25;;;18.40;66.30;;;;;;5013057;28;20223;-65
2023/05/14 07:11:14;;;;;;;3.83;3.50;;;18.40;66.30;;;;;;4991962;28;20196;-65
2023/05/14 07:13:40;;;;;;;3.10;2.90;;;18.40;66.30;;;;;;5009580;28;20224;-65
2023/05/14 07:16:10;;;;;;;3.65;3.35;;;18.40;66.30;;;;;;5028159;28;20212;-66
2023/05/14 07:18:36;;;;;;;3.42;3.22;;;18.40;66.40;;;;;;4992370;28;20271;-65
2023/05/14 07:21:05;;;;;;;3.38;3.17;;;18.40;67.10;;;;;;5011504;28;20232;-65
2023/05/14 07:23:32;;;;;;;3.55;3.28;;;18.40;66.30;;;;;;5009622;28;20211;-65
2023/05/14 07:25:58;;;;;;;3.45;3.20;;;18.40;66.30;;;;;;5011307;28;20218;-65
2023/05/14 07:28:24;;;;;;;3.40;3.10;;;18.40;66.20;;;;;;5028268;28;20191;-65
2023/05/14 07:30:50;;;;;;;3.80;3.50;;;18.40;66.30;;;;;;5011799;28;20275;-65
2023/05/14 07:33:15;;;;;;;3.58;3.38;;;18.50;66.30;;;;;;5023353;28;20196;-65
2023/05/14 07:35:41;;;;;;;3.67;3.17;;;18.40;66.20;;;;;;5016225;28;20217;-65
2023/05/14 07:38:07;;;;;;;3.97;3.67;;;18.50;66.30;;;;;;5027791;28;20200;-65
2023/05/14 07:40:33;;;;;;;3.50;3.20;;;18.40;66.20;;;;;;5027764;28;20226;-65
2023/05/14 07:42:58;;;;;;;3.30;3.00;;;18.40;66.10;;;;;;4994871;28;20196;-65
2023/05/14 07:45:24;;;;;;;3.45;3.15;;;18.50;66.20;;;;;;5022419;28;20299;-65
2023/05/14 07:47:50;;;;;;;3.13;2.92;;;18.50;66.20;;;;;;5025426;28;20192;-66
2023/05/14 07:50:17;;;;;;;3.20;3.00;;;18.50;66.10;;;;;;5007127;28;20216;-65
2023/05/14 07:52:44;;;;;;;3.40;3.20;;;18.40;66.10;;;;;;5024436;28;20192;-67
2023/05/14 07:55:11;;;;;;;3.33;3.13;;;18.50;66.10;;;;;;5011251;28;20758;-65
2023/05/14 07:57:37;;;;;;;3.80;3.50;;;18.50;66.20;;;;;;5012330;28;20191;-65
2023/05/14 08:00:06;;;;;;;3.55;3.25;;;18.50;66.20;;;;;;5010998;28;20298;-64
2023/05/14 08:02:38;;;;;;;3.35;3.15;;;18.50;66.10;;;;;;5027054;28;20188;-65
2023/05/14 08:05:04;;;;;;;3.90;3.60;;;18.50;66.10;;;;;;5011022;28;20212;-65
2023/05/14 08:07:30;;;;;;;3.40;3.20;;;18.50;66.10;;;;;;5019334;28;20191;-65
2023/05/14 08:09:56;;;;;;;3.50;3.30;;;18.40;66.00;;;;;;5012151;28;20566;-65
2023/05/14 08:12:21;;;;;;;3.92;3.63;;;18.50;66.00;;;;;;5011377;28;20326;-65
2023/05/14 08:14:47;;;;;;;3.95;3.65;;;18.50;66.10;;;;;;4994607;28;20253;-66
2023/05/14 08:17:13;;;;;;;3.47;3.17;;;18.50;66.80;;;;;;5011187;28;20184;-66
2023/05/14 08:19:39;;;;;;;3.60;3.30;;;18.50;66.00;;;;;;5011168;28;20247;-66
2023/05/14 08:22:04;;;;;;;3.50;3.20;;;18.50;66.00;;;;;;5028194;28;20235;-65
2023/05/14 08:24:30;;;;;;;3.75;3.45;;;18.40;65.90;;;;;;4995275;28;20185;-66
2023/05/14 08:26:56;;;;;;;3.50;3.30;;;18.50;66.00;;;;;;5013004;28;20198;-65
2023/05/14 08:29:22;;;;;;;4.13;3.60;;;18.40;65.90;;;;;;5008037;28;20303;-66
2023/05/14 08:31:48;;;;;;;3.90;3.60;;;18.40;65.90;;;;;;4998363;28;20187;-65
2023/05/14 08:34:14;;;;;;;3.90;3.60;;;18.50;65.90;;;;;;5031382;28;20192;-66
2023/05/14 08:36:40;;;;;;;4.10;3.80;;;18.50;65.90;;;;;;5014822;28;20216;-66
2023/05/14 08:39:06;;;;;;;3.85;3.55;;;18.50;65.90;;;;;;5031180;28;20211;-66
2023/05/14 08:41:33;;;;;;;3.88;3.58;;;18.50;65.80;;;;;;5008434;28;20216;-66
2023/05/14 08:44:24;;;;;;;3.80;3.50;;;18.50;65.80;;;;;;5013175;28;20275;-65
2023/05/14 08:46:52;;;;;;;3.63;3.33;;;18.50;65.80;;;;;;5030860;28;20207;-65
2023/05/14 08:49:28;;;;;;;3.97;3.67;;;18.50;65.80;;;;;;5010148;28;20193;-65
2023/05/14 08:51:55;;;;;;;4.00;3.70;;;18.50;65.70;;;;;;5013183;28;20192;-65
2023/05/14 08:54:22;;;;;;;3.53;3.33;;;18.50;65.70;;;;;;4998169;28;20180;-65
2023/05/14 08:56:50;;;;;;;3.10;2.90;;;18.50;65.80;;;;;;4998069;28;20214;-64
2023/05/14 08:59:16;;;;;;;4.20;3.90;;;18.50;65.80;;;;;;5014399;28;20180;-66
2023/05/14 09:01:47;;;;;;;3.47;3.28;;;18.50;65.80;;;;;;5014257;28;20218;-65
2023/05/14 09:04:22;;;;;;;3.42;3.13;;;18.50;65.70;;;;;;5022797;28;20207;-63
2023/05/14 09:06:50;;;;;;;3.45;3.15;;;18.50;65.70;;;;;;5013878;28;20841;-65
2023/05/14 09:09:17;;;;;;;3.72;3.42;;;18.50;65.70;;;;;;5014040;28;20173;-66
2023/05/14 09:11:50;;;;;;;3.95;3.65;;;18.50;65.60;;;;;;5030613;28;20195;-65
2023/05/14 09:14:17;;;;;;;3.92;3.63;;;18.50;65.60;;;;;;5014053;28;20254;-66
2023/05/14 09:16:47;;;;;;;4.15;3.83;;;18.50;65.60;;;;;;5013591;28;20622;-66
2023/05/14 09:19:14;;;;;;;4.10;3.47;;;18.60;65.70;;;;;;5013914;28;20269;-65
2023/05/14 09:21:41;;;;;;;3.78;3.47;;;18.50;65.50;;;;;;5030373;28;20220;-66
2023/05/14 09:24:07;;;;;;;3.70;3.40;;;18.50;65.40;;;;;;4996966;28;20197;-65
2023/05/14 09:26:34;;;;;;;3.47;3.17;;;18.50;65.50;;;;;;5013959;28;20236;-66
2023/05/14 09:29:01;;;;;;;3.97;3.67;;;18.60;65.90;;;;;;4997569;28;20242;-66
2023/05/14 09:31:32;;;;;;;3.50;3.30;;;18.50;65.60;;;;;;5011932;28;20196;-66
2023/05/14 09:33:59;;;;;;;3.90;3.60;;;18.60;65.70;;;;;;5005234;28;20279;-66
2023/05/14 09:36:26;;;;;;;3.88;3.55;;;18.50;65.60;;;;;;5013355;28;20212;-66
2023/05/14 09:38:55;;;;;;;3.80;3.50;;;18.60;65.70;;;;;;5029934;28;20569;-66
2023/05/14 09:41:21;;;;;;;3.42;3.13;;;18.60;65.70;;;;;;5013671;28;20219;-66
2023/05/14 09:43:49;;;;;;;4.10;3.60;;;18.60;65.60;;;;;;5029891;28;20571;-66
2023/05/14 09:46:15;;;;;;;3.53;3.22;;;18.60;65.70;;;;;;5021651;28;20214;-67
2023/05/14 09:48:41;;;;;;;3.45;3.22;;;18.60;65.60;;;;;;4996988;28;20663;-65
2023/05/14 09:51:09;;;;;;;3.95;3.17;;;18.60;65.80;;;;;;5013077;28;20242;-66
2023/05/14 09:53:35;;;;;;;3.60;3.40;;;18.60;65.80;;;;;;5014543;28;20278;-66
2023/05/14 09:56:02;;;;;;;3.63;3.40;;;18.60;65.70;;;;;;5021598;28;20213;-66
2023/05/14 09:58:28;;;;;;;3.58;3.28;;;18.60;65.80;;;;;;4991970;28;20764;-66
2023/05/14 10:00:56;;;;;;;3.50;3.20;;;18.60;65.70;;;;;;5010004;28;20256;-66
2023/05/14 10:03:26;;;;;;;4.00;3.17;;;18.60;66.50;;;;;;5025304;28;20189;-66
2023/05/14 10:05:56;;;;;;;4.00;3.70;;;18.60;65.70;;;;;;5026179;28;20258;-66
2023/05/14 10:08:45;;;;;;;3.35;3.00;;;18.60;65.70;;;;;;5012986;28;20180;-66
2023/05/14 10:11:19;;;;;;;4.25;3.40;;;18.60;65.60;;;;;;5013004;28;20211;-66
2023/05/14 10:14:37;;;;;;;3.85;3.38;;;18.60;65.40;;;;;;5013318;28;20214;-66
2023/05/14 10:17:06;;;;;;;3.72;3.42;;;18.60;65.50;;;;;;5011113;28;20255;-66
2023/05/14 10:19:36;;;;;;;5.38;3.20;;;18.70;65.60;;;;;;5012789;28;20250;-66
2023/05/14 10:22:10;;;;;;;3.70;3.40;;;18.70;66.00;;;;;;5013984;28;20200;-66
2023/05/14 10:24:37;;;;;;;4.32;3.25;;;18.70;66.00;;;;;;5012758;28;20674;-66
2023/05/14 10:27:04;;;;;;;4.45;3.30;;;18.70;66.00;;;;;;5010908;28;20279;-66
2023/05/14 10:29:35;;;;;;;3.47;3.17;;;18.70;66.00;;;;;;5022902;28;20191;-66
2023/05/14 10:32:06;;;;;;;3.45;3.25;;;18.70;66.30;;;;;;4996198;28;20234;-66
2023/05/14 10:34:37;;;;;;;3.60;3.30;;;18.70;66.10;;;;;;5012349;28;20273;-66
2023/05/14 10:37:16;;;;;;;4.85;3.17;;;18.70;66.00;;;;;;4996296;28;20230;-67
2023/05/14 10:40:00;;;;;;;3.40;3.10;;;18.70;65.90;;;;;;5012803;28;20199;-66
2023/05/14 10:42:42;;;;;;;3.70;3.40;;;18.70;65.80;;;;;;5013565;28;20237;-67
2023/05/14 10:45:14;;;;;;;3.63;3.33;;;18.70;65.80;;;;;;5027987;28;20215;-68
2023/05/14 10:47:45;;;;;;;3.70;3.40;;;18.70;65.80;;;;;;5012278;28;20195;-67
2023/05/14 10:50:14;;;;;;;3.35;3.05;;;18.70;65.70;;;;;;5012344;28;20231;-66
2023/05/14 10:52:42;;;;;;;3.42;3.13;;;18.70;65.70;;;;;;4996185;28;20282;-66
2023/05/14 10:55:13;;;;;;;3.25;2.95;;;18.70;66.00;;;;;;4993804;28;20775;-66
2023/05/14 10:57:42;;;;;;;4.90;3.50;;;18.70;66.10;;;;;;5010632;28;20194;-67
2023/05/14 11:00:09;;;;;;;4.93;3.17;;;18.80;66.40;;;;;;5020280;28;20259;-67
2023/05/14 11:02:39;;;;;;;3.33;3.03;;;18.70;66.30;;;;;;5006199;28;20207;-67
2023/05/14 11:05:08;;;;;;;5.72;3.33;;;18.70;65.80;;;;;;5018206;28;20216;-66
2023/05/14 11:07:56;;;;;;;3.20;3.00;;;18.70;65.90;;;;;;5011996;28;20184;-66
2023/05/14 11:10:24;;;;;;;3.33;3.03;;;18.70;65.80;;;;;;5012124;28;20195;-65
2023/05/14 11:12:51;;;;;;;5.22;3.00;;;18.70;65.90;;;;;;5011984;28;20267;-66
2023/05/14 11:15:20;;;;;;;3.30;3.00;;;18.80;65.70;;;;;;5008705;28;20276;-66
2023/05/14 11:17:48;;;;;;;4.82;3.33;;;18.70;65.50;;;;;;5006807;28;20184;-66
2023/05/14 11:20:15;;;;;;;3.53;2.97;;;18.70;65.90;;;;;;5019911;28;20183;-66
2023/05/14 11:22:42;;;;;;;6.50;3.10;;;18.70;66.00;;;;;;4995224;28;20188;-66
2023/05/14 11:25:13;;;;;;;5.75;3.05;;;18.70;66.30;;;;;;5011500;28;20212;-65
2023/05/14 11:27:42;;;;;;;4.25;3.33;;;18.70;66.20;;;;;;5011467;28;20191;-66
2023/05/14 11:30:19;;;;;;;5.22;3.15;;;18.70;66.10;;;;;;5027768;28;20192;-65
2023/05/14 11:32:47;;;;;;;3.38;2.88;;;18.70;66.40;;;;;;5011580;28;20187;-66
2023/05/14 11:35:14;;;;;;;3.70;3.05;;;18.80;66.30;;;;;;5011244;28;20303;-65
2023/05/14 11:37:41;;;;;;;3.33;2.90;;;18.70;66.40;;;;;;5003631;28;20188;-66
2023/05/14 11:40:15;;;;;;;3.40;3.10;;;18.80;66.40;;;;;;4995119;28;20287;-65
2023/05/14 11:42:41;;;;;;;3.20;2.90;;;18.80;66.40;;;;;;4994969;28;20729;-66
2023/05/14 11:45:11;;;;;;;3.65;3.00;;;18.80;66.20;;;;;;5011040;28;20216;-66
2023/05/14 11:47:36;;;;;;;3.28;2.97;;;18.80;66.10;;;;;;5000177;28;20253;-64
2023/05/14 11:50:02;;;;;;;3.53;3.22;;;18.80;66.20;;;;;;5013719;28;20192;-66
2023/05/14 11:52:28;;;;;;;4.28;3.13;;;18.80;66.20;;;;;;5011455;28;20199;-66
2023/05/14 11:54:54;;;;;;;3.75;3.35;;;18.80;66.10;;;;;;5011215;28;20200;-65
2023/05/14 11:57:21;;;;;;;4.97;3.45;;;18.70;66.10;;;;;;5007965;28;20192;-66
2023/05/14 11:59:54;;;;;;;3.38;3.08;;;18.70;66.10;;;;;;5006663;28;20220;-65
2023/05/14 12:02:21;;;;;;;3.40;3.10;;;18.70;66.30;;;;;;4991840;28;20228;-66
2023/05/14 12:04:53;;;;;;;3.30;2.75;;;18.80;66.70;;;;;;5006531;28;20220;-65
2023/05/14 12:07:19;;;;;;;4.07;3.13;;;18.80;66.40;;;;;;5002812;28;20176;-65
2023/05/14 12:09:48;;;;;;;3.25;2.90;;;18.80;66.20;;;;;;4994855;28;20206;-65
2023/05/14 12:12:20;;;;;;;4.93;3.17;;;18.80;66.00;;;;;;5027327;28;20196;-65
2023/05/14 12:14:47;;;;;;;3.72;3.22;;;18.80;66.00;;;;;;5011054;28;20211;-65
2023/05/14 12:17:19;;;;;;;3.92;3.17;;;18.80;66.40;;;;;;4994378;28;20271;-65
2023/05/14 12:19:49;;;;;;;6.28;3.25;;;18.80;66.80;;;;;;5027317;28;20319;-67
2023/05/14 12:22:18;;;;;;;3.38;2.95;;;18.80;66.80;;;;;;5011067;28;20214;-66
2023/05/14 12:24:59;;;;;;;4.00;3.22;;;18.80;66.80;;;;;;5027286;28;20287;-65
2023/05/14 12:27:28;;;;;;;3.25;3.03;;;18.80;66.50;;;;;;4986871;28;20215;-65
2023/05/14 12:30:02;;;;;;;3.78;3.05;;;18.80;66.60;;;;;;5007753;28;20612;-65
2023/05/14 12:32:33;;;;;;;3.35;3.05;;;18.80;67.40;;;;;;5003362;28;20214;-65
2023/05/14 12:35:02;;;;;;;7.18;3.08;;;18.80;66.90;;;;;;5010771;28;20675;-65
2023/05/14 12:37:28;;;;;;;3.20;3.00;;;18.80;67.10;;;;;;5011470;28;20238;-65
2023/05/14 12:39:54;;;;;;;3.42;3.20;;;18.80;67.10;;;;;;5012103;28;20215;-65
2023/05/14 12:42:20;;;;;;;3.95;3.00;;;18.80;66.70;;;;;;4991835;28;20649;-65
2023/05/14 12:44:46;;;;;;;3.55;3.25;;;18.80;66.40;;;;;;5014019;28;20189;-66
2023/05/14 12:47:12;;;;;;;3.28;3.00;;;18.80;67.30;;;;;;5010705;28;20211;-65
2023/05/14 12:49:38;;;;;;;2.90;2.70;;;18.80;67.40;;;;;;4994324;28;20196;-66
2023/05/14 12:52:04;;;;;;;3.10;2.90;;;18.80;67.60;;;;;;4994335;28;20195;-65